• Join FlightAware (Why Join?)
  • Login
  • US Flag 
12:30AM EST


 

Airport Tracker/Info


-or-


 

Live Flight TrackerFlight Track Log ✈ SWA1075 ✈ 22-May-2013 ✈ KAUS - KMCO

Flight Track Log - Related Links

Times and Time Zones

All times are in EDT time to prevent confusion due to time zone crossing. See the SWA1075 flight status page for this flight to view local times or setup timezone preferences in your user account.

Time Position Orientation Groundspeed Altitude Reporting Facility
EDT Latitude Longitude Course Direction KTS MPH feet Rate Location/Type
12:21PM 30.1361 -97.6522 99° East 201 231 2,400  Level Houston Center
12:22PM 30.1267 -97.5789 98° East 258 297 4,600 2,880 Climbing Houston Center
12:23PM 30.1347 -97.4764 85° East 270 311 8,400 2,760 Climbing Houston Center
12:24PM 30.1622 -97.3928 69° East 291 335 10,400 1,920 Climbing Houston Center
12:25PM 30.2147 -97.3081 54° Northeast 322 371 12,400 1,800 Climbing Houston Center
12:26PM 30.2700 -97.2161 55° Northeast 342 394 14,200 1,680 Climbing Houston Center
12:27PM 30.3380 -96.9828 99° East  Level FlightAware Approximate
12:28PM 30.3311 -97.1156 55° Northeast 374 430 15,900  Level Houston Center
12:29PM 30.3469 -96.9911 82° East 398 458 18,100 1,980 Climbing Houston Center
12:30PM 30.3375 -96.8369 94° East 410 472 20,100 1,680 Climbing Houston Center
12:31PM 30.3292 -96.7008 94° East 420 483 21,600 1,440 Climbing Houston Center
12:32PM 30.3211 -96.5583 94° East 436 502 23,100 1,440 Climbing Houston Center
12:33PM 30.3108 -96.4139 95° East 446 513 24,600 1,500 Climbing Houston Center
12:34PM 30.2878 -96.2694 100° East 454 522 26,300 1,440 Climbing Houston Center
12:35PM 30.2647 -96.1256 100° East 453 521 27,600 1,200 Climbing Houston Center
12:36PM 30.2417 -95.9781 100° East 454 522 28,800 1,140 Climbing Houston Center
12:37PM 30.2183 -95.8297 100° East 467 537 30,000 1,200 Climbing Houston Center
12:38PM 30.1908 -95.6517 100° East 469 540 31,300 1,200 Climbing Houston Center
12:39PM 30.1661 -95.5025 101° East 472 543 32,600 1,200 Climbing Houston Center
12:40PM 30.1431 -95.3547 100° East 467 537 33,800 900 Climbing Houston Center
12:41PM 30.1194 -95.2072 100° East 465 535 34,500 540 Climbing Houston Center
12:42PM 30.0950 -95.0583 101° East 467 537 35,000 240 Climbing Houston Center
12:43PM 30.0703 -94.9075 101° East 472 543 35,000  Level Houston Center
12:44PM 30.0447 -94.7575 101° East 474 545 35,000  Level Houston Center
12:45PM 30.0136 -94.5764 101° East 475 547 35,000  Level Houston Center
12:46PM 29.9911 -94.4425 101° East 475 547 35,000  Level Houston Center
12:47PM 29.9658 -94.2933 101° East 477 549 35,000  Level Houston Center
12:48PM 29.9358 -94.1158 101° East 474 545 35,000  Level Houston Center
12:49PM 29.9094 -93.9672 102° East 476 548 35,000  Level Houston Center
12:50PM 29.8831 -93.8200 102° East 474 545 35,000  Level Houston Center
12:51PM 29.8575 -93.6731 101° East 471 542 35,000  Level Houston Center
12:52PM 29.8314 -93.5278 102° East 469 540 35,000  Level Houston Center
12:53PM 29.8006 -93.3547 102° East 466 536 35,000  Level Houston Center
12:54PM 29.7747 -93.2094 102° East 467 537 35,000  Level Houston Center
12:55PM 29.7492 -93.0639 101° East 469 540 35,000  Level Houston Center
12:56PM 29.7228 -92.9161 102° East 475 547 35,000  Level Houston Center
12:58PM 29.6956 -92.7708 102° East 469 540 35,000 -60 Level Houston Center
12:59PM 29.6650 -92.6028 102° East 451 519 34,900  Descending Houston Center
01:00PM 29.6381 -92.4642 103° East 448 516 35,000  Climbing Houston Center
01:01PM 29.6119 -92.3225 102° East 451 519 35,000  Level Houston Center
01:02PM 29.5853 -92.1808 102° East 454 522 35,000  Level Houston Center
01:03PM 29.5589 -92.0392 102° East 455 524 35,000  Level Houston Center
01:04PM 29.5331 -91.8981 102° East 453 521 35,000  Level Houston Center
01:05PM 29.5017 -91.7308 102° East 449 517 35,000  Level Houston Center
01:06PM 29.4756 -91.5931 102° East 446 513 35,000  Level Houston Center
01:07PM 29.4478 -91.4569 103° East 441 507 35,000  Level Houston Center
01:08PM 29.4228 -91.3211 102° East 439 505 35,000  Level Houston Center
01:09PM 29.3947 -91.1839 103° East 441 507 35,000  Level Houston Center
01:10PM 29.3689 -91.0444 102° East 446 513 35,000  Level Houston Center
01:11PM 29.3347 -90.8753 103° East 454 522 35,000  Level Houston Center
01:12PM 29.3058 -90.7344 103° East 458 527 35,000  Level Houston Center
01:13PM 29.2772 -90.5908 103° East 462 532 35,000  Level Houston Center
01:14PM 29.2475 -90.4456 103° East 468 539 35,000  Level Houston Center
01:15PM 29.2189 -90.3019 103° East 465 535 35,000  Level Houston Center
01:16PM 29.1831 -90.1306 103° East 465 535 35,000  Level Houston Center
01:17PM 29.1542 -89.9875 103° East 465 535 35,000  Level Houston Center
01:18PM 29.1256 -89.8467 103° East 459 528 35,000  Level Houston Center
01:19PM 29.0953 -89.7056 104° East 459 528 35,000  Level Houston Center
01:20PM 29.0661 -89.5619 103° East 465 535 35,000  Level Houston Center
01:21PM 29.0358 -89.4181 103° East 469 540 35,000 -60 Level Houston Center
01:22PM 29.0003 -89.2492 103° East 458 527 34,900  Descending Houston Center
01:23PM 28.9714 -89.1094 103° East 453 521 35,000  Climbing Houston Center
01:24PM 28.9322 -88.9739 108° East 451 519 35,000  Level Houston Center
01:25PM 28.8864 -88.8450 112° Southeast 444 511 35,000  Level Houston Center
01:26PM 28.8536 -88.7119 106° East 437 503 35,000  Level Houston Center
01:27PM 28.8114 -88.5522 107° East 439 505 35,000  Level Houston Center
01:29PM 28.7758 -88.4200 107° East 438 504 35,000  Level Houston Center
01:30PM 28.7403 -88.2861 107° East 442 509 35,000  Level Houston Center
01:31PM 28.7044 -88.1542 107° East 438 504 35,000  Level Houston Center
01:32PM 28.6661 -88.0122 107° East 442 509 35,000  Level Houston Center
01:33PM 28.6294 -87.8775 107° East 446 513 35,000  Level Houston Center
01:34PM 28.5925 -87.7439 107° East 444 511 35,000  Level Houston Center
01:35PM 28.5569 -87.6103 107° East 443 510 35,000  Level Houston Center
01:36PM 28.5119 -87.4489 108° East 446 513 35,000  Level Houston Center
01:37PM 28.4753 -87.3147 107° East 445 512 35,000  Level Houston Center
01:38PM 28.4375 -87.1806 108° East 446 513 35,000  Level Houston Center
01:38PM 28.4203 -87.1242 109° East 446 513 35,000  Level Jacksonville Center
01:39PM 28.3831 -86.9881 107° East 446 513 35,000  Level Jacksonville Center
01:40PM 28.3456 -86.8547 108° East 451 519 35,000  Level Jacksonville Center
01:41PM 28.3061 -86.7117 107° East 451 519 35,000  Level Jacksonville Center
01:42PM 28.2703 -86.5783 107° East 444 511 35,000  Level Jacksonville Center
01:43PM 28.2264 -86.4306 109° East 458 527 35,000  Level Jacksonville Center
01:44PM 28.1903 -86.3000 107° East 458 527 35,000  Level Jacksonville Center
01:45PM 28.1461 -86.1572 109° East 458 527 35,000  Level Jacksonville Center
01:46PM 28.1097 -86.0289 108° East 458 527 35,000  Level Jacksonville Center
01:47PM 28.0672 -85.8819 108° East 458 527 35,000  Level Jacksonville Center
01:48PM 28.0286 -85.7467 108° East 464 534 35,000  Level Jacksonville Center
01:49PM 27.9819 -85.5928 109° East 469 540 35,000  Level Jacksonville Center
01:52PM 27.8894 -85.2678 108° East 456 525 35,000  Level Miami Center
01:53PM 27.8706 -85.1306 99° East 446 513 35,000  Level Miami Center
01:54PM 27.8500 -85.0164 101° East 446 513 35,000  Level Miami Center
01:55PM 27.8253 -84.8600 100° East 452 520 35,000  Level Miami Center
01:57PM 27.8117 -84.5753 93° East 452 520 35,000  Level Miami Center
01:58PM 27.8172 -84.4328 87° East 447 514 35,000  Level Miami Center
01:59PM 27.8206 -84.2900 88° East 447 514 35,000  Level Miami Center
02:00PM 27.8175 -84.1444 91° East 453 521 35,000  Level Miami Center
02:01PM 27.8167 -83.9989 90° East 458 527 35,000  Level Miami Center
02:02PM 27.8194 -83.8561 89° East 458 527 35,000 -360 Level Miami Center
02:03PM 27.8200 -83.7106 90° East 458 527 34,300 -1,860 Descending Miami Center
02:04PM 27.8208 -83.5653 90° East 458 527 31,300 -3,000 Descending Miami Center
02:05PM 27.8236 -83.4153 89° East 458 527 28,400 -2,700 Descending Miami Center
02:06PM 27.8256 -83.2747 89° East 458 527 26,000 -2,400 Descending Miami Center
02:07PM 27.8253 -83.1411 90° East 451 519 23,600 -1,500 Descending Miami Center
02:08PM 27.8269 -83.0075 89° East 431 496 23,000 -300 Descending Miami Center
02:09PM 27.8250 -82.8572 91° East 425 489 23,000 -420 Level Miami Center
02:10PM 27.8264 -82.7189 89° East 431 496 22,200 -900 Descending Miami Center
02:11PM 27.8236 -82.5803 91° East 436 502 21,200 -1,020 Descending Miami Center
02:12PM 27.8558 -82.4528 74° East 428 493 20,200 -1,020 Descending Miami Center
02:13PM 27.8856 -82.3322 74° East 409 471 19,200 -1,140 Descending Miami Center
02:15PM 27.9667 -82.0833 70° East 392 451 16,800 -1,500 Descending Orlando TRACON
02:16PM 28.0000 -81.9833 69° East 377 434 14,700 -1,920 Descending Orlando TRACON
02:17PM 28.0500 -81.8833 60° Northeast 360 414 13,000 -1,080 Descending Orlando TRACON
02:18PM 28.1000 -81.7833 60° Northeast 338 389 12,600 -480 Descending Orlando TRACON
02:19PM 28.1500 -81.7000 56° Northeast 301 346 12,000 -900 Descending Orlando TRACON
02:20PM 28.2000 -81.6167 56° Northeast 303 349 10,700 -1,200 Descending Orlando TRACON
02:21PM 28.2500 -81.5500 50° Northeast 282 325 9,700 -900 Descending Orlando TRACON
02:22PM 28.2833 -81.4833 60° Northeast 256 295 9,000 -420 Descending Orlando TRACON
02:23PM 28.3333 -81.4333 41° Northeast 232 267 9,000 -360 Level Orlando TRACON
02:24PM 28.4000 -81.4167 12° North 224 258 8,400 -900 Descending Orlando TRACON
02:25PM 28.4500 -81.4167 360° North 215 247 7,200 -1,380 Descending Orlando TRACON
02:26PM 28.5167 -81.4167 360° North 215 247 5,700 -1,620 Descending Orlando TRACON
02:27PM 28.5667 -81.4000 16° North 207 238 4,000 -1,620 Descending Orlando TRACON
02:28PM 28.5667 -81.3500 90° East 192 221 2,500 -1,260 Descending Orlando TRACON
02:29PM 28.5167 -81.3333 164° South 141 162 1,500 -960 Descending Orlando TRACON
02:30PM 28.4667 -81.3167 164° South 150 173 600 -840 Descending Orlando TRACON